ADDS METAR Data INFO
IDs: Format: Raw Decoded Include TAF

Data at: 0202 UTC 17 Oct 2017

KRDK 170155Z AUTO 20007KT 10SM CLR 13/05 A3015 RMK AO2
KRDK 170135Z AUTO 21006KT 10SM CLR 13/05 A3015 RMK AO2
KRDK 170115Z AUTO 20004KT 10SM CLR 12/05 A3015 RMK AO2
KRDK 170055Z AUTO 20005KT 10SM CLR 13/05 A3015 RMK AO2
KRDK 170035Z AUTO 21004KT 10SM CLR 14/05 A3015 RMK AO2
KRDK 170015Z AUTO 20006KT 10SM CLR 15/05 A3015 RMK AO2
KRDK 162355Z AUTO 20006KT 10SM CLR 16/04 A3015 RMK AO2
KRDK 162335Z AUTO 20006KT 10SM CLR 17/04 A3014 RMK AO2
KRDK 162315Z AUTO 21008KT 10SM CLR 19/04 A3015 RMK AO2
KRDK 162255Z AUTO 20011KT 10SM CLR 21/03 A3014 RMK AO2
KRDK 162235Z AUTO 20012G18KT 10SM CLR 21/03 A3015 RMK AO2
KRDK 162215Z AUTO 20014G20KT 10SM CLR 21/03 A3016 RMK AO2
KRDK 162155Z AUTO 21012G22KT 10SM CLR 22/03 A3016 RMK AO2
KRDK 162135Z AUTO 21015G21KT 10SM CLR 22/03 A3017 RMK AO2
KRDK 162115Z AUTO 21012G21KT 10SM CLR 22/03 A3018 RMK AO2
KRDK 162055Z AUTO 21015G20KT 10SM CLR 22/04 A3018 RMK AO2
KRDK 162035Z AUTO 22013G21KT 10SM CLR 22/04 A3018 RMK AO2
KRDK 162015Z AUTO 22016KT 10SM CLR 22/03 A3019 RMK AO2
KRDK 161955Z AUTO 20018G24KT 10SM CLR 21/02 A3020 RMK AO2
KRDK 161935Z AUTO 22014KT 10SM CLR 21/03 A3021 RMK AO2
KRDK 161915Z AUTO 22014G19KT 10SM CLR 21/03 A3022 RMK AO2
KRDK 161855Z AUTO 22013G18KT 10SM CLR 21/03 A3024 RMK AO2
KRDK 161835Z AUTO 20015KT 10SM CLR 21/03 A3026 RMK AO2
KRDK 161815Z AUTO 21011G18KT 10SM CLR 20/03 A3027 RMK AO2
KRDK 161755Z AUTO 20014KT 10SM CLR 20/02 A3029 RMK AO2
KRDK 161735Z AUTO 20014KT 10SM CLR 19/03 A3030 RMK AO2
KRDK 161715Z AUTO 20012G18KT 10SM CLR 19/03 A3031 RMK AO2
KRDK 161655Z AUTO 19012G18KT 170V230 10SM CLR 18/03 A3032 RMK AO2
KRDK 161635Z AUTO 20013KT 10SM CLR 18/03 A3033 RMK AO2
KRDK 161615Z AUTO 19011G17KT 10SM CLR 17/04 A3034 RMK AO2
KRDK 161555Z AUTO 19008KT 10SM CLR 15/05 A3034 RMK AO2
KRDK 161535Z AUTO 19009KT 10SM CLR 14/05 A3034 RMK AO2
KRDK 161515Z AUTO 19005KT 10SM CLR 12/06 A3035 RMK AO2
KRDK 161455Z AUTO 18004KT 10SM CLR 10/06 A3035 RMK AO2
KRDK 161435Z AUTO 00000KT 10SM CLR 08/05 A3036 RMK AO2
KRDK 161415Z AUTO 19004KT 10SM CLR 06/05 A3036 RMK AO2
KRDK 161355Z AUTO 20004KT 10SM CLR 05/04 A3036 RMK AO2
KRDK 161335Z AUTO 00000KT 10SM CLR 03/03 A3036 RMK AO2
KRDK 161315Z AUTO 00000KT 10SM CLR 02/02 A3036 RMK AO2
KRDK 161255Z AUTO 00000KT 10SM CLR 01/01 A3036 RMK AO2
KRDK 161235Z AUTO 00000KT 10SM CLR 01/01 A3036 RMK AO2
KRDK 161215Z AUTO 00000KT 10SM CLR 02/02 A3036 RMK AO2
KRDK 161155Z AUTO 24003KT 10SM CLR 01/01 A3035 RMK AO2
KRDK 161135Z AUTO 00000KT 10SM CLR 01/01 A3034 RMK AO2
KRDK 161115Z AUTO 00000KT 9SM CLR 02/02 A3034 RMK AO2
KRDK 161055Z AUTO 00000KT 10SM CLR 02/02 A3034 RMK AO2
KRDK 161035Z AUTO 00000KT 10SM CLR 02/02 A3034 RMK AO2
KRDK 161015Z AUTO 00000KT 10SM CLR 02/02 A3034 RMK AO2
KRDK 160955Z AUTO 00000KT 10SM CLR 02/02 A3034 RMK AO2
KRDK 160935Z AUTO 00000KT 10SM CLR 01/01 A3034 RMK AO2
KRDK 160915Z AUTO 00000KT 10SM CLR 02/02 A3034 RMK AO2
KRDK 160855Z AUTO 00000KT 10SM CLR 02/02 A3034 RMK AO2
KRDK 160835Z AUTO 00000KT 10SM CLR 02/02 A3034 RMK AO2
KRDK 160815Z AUTO 00000KT 10SM CLR 02/02 A3034 RMK AO2
KRDK 160755Z AUTO 00000KT 10SM CLR 02/02 A3034 RMK AO2
KRDK 160735Z AUTO 00000KT 10SM CLR 02/02 A3034 RMK AO2
KRDK 160715Z AUTO 00000KT 10SM CLR 03/02 A3035 RMK AO2
KRDK 160655Z AUTO 00000KT 10SM CLR 02/02 A3034 RMK AO2
KRDK 160635Z AUTO 00000KT 10SM CLR 02/02 A3034 RMK AO2
KRDK 160615Z AUTO 00000KT 10SM CLR 03/02 A3034 RMK AO2
KRDK 160555Z AUTO 00000KT 10SM CLR 03/02 A3034 RMK AO2
KRDK 160535Z AUTO 00000KT 10SM CLR 03/03 A3034 RMK AO2
KRDK 160515Z AUTO 00000KT 10SM CLR 04/03 A3034 RMK AO2
KRDK 160455Z AUTO 00000KT 10SM CLR 03/02 A3034 RMK AO2
KRDK 160435Z AUTO 00000KT 10SM CLR 04/03 A3034 RMK AO2
KRDK 160415Z AUTO 00000KT 10SM CLR 04/03 A3034 RMK AO2
KRDK 160355Z AUTO 00000KT 10SM CLR 05/03 A3033 RMK AO2
KRDK 160335Z AUTO 21003KT 10SM CLR 05/04 A3033 RMK AO2
KRDK 160315Z AUTO 00000KT 10SM CLR 05/03 A3032 RMK AO2
KRDK 160255Z AUTO 00000KT 10SM CLR 04/03 A3032 RMK AO2
KRDK 160235Z AUTO 00000KT 10SM CLR 06/04 A3032 RMK AO2
KRDK 160215Z AUTO 00000KT 10SM CLR 06/03 A3032 RMK AO2
KRDK 160155Z AUTO 22003KT 10SM CLR 07/04 A3032 RMK AO2
KRDK 160135Z AUTO 00000KT 10SM CLR 07/04 A3032 RMK AO2
KRDK 160115Z AUTO 00000KT 10SM CLR 07/04 A3032 RMK AO2
KRDK 160055Z AUTO 19004KT 10SM CLR 07/03 A3032 RMK AO2
KRDK 160035Z AUTO 00000KT 10SM CLR 08/03 A3031 RMK AO2
KRDK 160015Z AUTO 24003KT 10SM CLR 08/03 A3031 RMK AO2
KRDK 152355Z AUTO 25004KT 10SM CLR 10/03 A3031 RMK AO2
KRDK 152335Z AUTO 25005KT 10SM CLR 12/01 A3031 RMK AO2
KRDK 152315Z AUTO 26005KT 10SM CLR 14/01 A3031 RMK AO2
KRDK 152255Z AUTO 26005G11KT 10SM CLR 14/01 A3032 RMK AO2
KRDK 152235Z AUTO 29007G12KT 10SM CLR 15/01 A3031 RMK AO2
KRDK 152215Z AUTO 28008G14KT 10SM CLR 15/01 A3031 RMK AO2
KRDK 152155Z AUTO 27010KT 10SM CLR 15/01 A3031 RMK AO2
KRDK 152135Z AUTO 29008G15KT 250V320 10SM CLR 15/00 A3032 RMK AO2
KRDK 152115Z AUTO VRB06KT 10SM CLR 16/01 A3032 RMK AO2
KRDK 152055Z AUTO 29009G14KT 10SM CLR 15/M00 A3032 RMK AO2
KRDK 152035Z AUTO 32010G15KT 10SM CLR 15/M00 A3032 RMK AO2
KRDK 152015Z AUTO 31010G17KT 10SM CLR 15/00 A3032 RMK AO2
KRDK 151955Z AUTO 32011G17KT 10SM CLR 15/01 A3032 RMK AO2
KRDK 151935Z AUTO 31008G17KT 10SM CLR 14/01 A3032 RMK AO2
KRDK 151915Z AUTO 33010G18KT 300V020 10SM CLR 14/01 A3033 RMK AO2
KRDK 151855Z AUTO 30010G17KT 10SM CLR 14/02 A3034 RMK AO2
KRDK 151835Z AUTO 32011G20KT 10SM CLR 14/02 A3034 RMK AO2
KRDK 151815Z AUTO 33011G18KT 310V010 10SM CLR 13/03 A3035 RMK AO2
KRDK 151755Z AUTO 33011G17KT 10SM CLR 13/04 A3035 RMK AO2
KRDK 151735Z AUTO 30009G15KT 10SM CLR 13/04 A3035 RMK AO2
KRDK 151715Z AUTO 32010G15KT 290V010 10SM CLR 12/04 A3036 RMK AO2
KRDK 151655Z AUTO 32010KT 10SM FEW026 11/04 A3035 RMK AO2
KRDK 151635Z AUTO 31009KT 10SM FEW024 11/05 A3035 RMK AO2
KRDK 151615Z AUTO 32010G15KT 10SM FEW022 10/05 A3035 RMK AO2
KRDK 151555Z AUTO 31012KT 10SM SCT020 10/05 A3034 RMK AO2
KRDK 151535Z AUTO 31008G14KT 10SM SCT020 09/04 A3034 RMK AO2
KRDK 151515Z AUTO 31010KT 10SM BKN019 BKN023 09/04 A3032 RMK AO2
KRDK 151455Z AUTO 30011KT 10SM BKN021 08/04 A3032 RMK AO2
KRDK 151435Z AUTO 29009G15KT 10SM SCT018 08/04 A3031 RMK AO2
KRDK 151415Z AUTO 29009G15KT 250V320 10SM BKN020 BKN024 09/05 A3029 RMK AO2